ZGNN

Details ICAO ZGNN (NNG)
Name WUXU
Region China
Timezone Asia/Chongqing (UTC+8.0)
Plans Departing 19
Arriving 27
Stats Elevation 421 ft / 128 m (AMSL)
Location 22.607958° 108.172190°
Runways 1
Magnetic Variation 1.959° W
Sunrise 2017-12-13 23:20:24 UTC / 2017-12-14 07:20:24 Local
Sunset 2017-12-14 10:06:06 UTC / 2017-12-14 18:06:06 Local
Advertisement - Login to hide

Runways

ID Width Length Bearing (true) Bearing (mag) Surface Threshold Offset Overrun Length
05 148 ft / 45 m 8,884 ft / 2,708 m 46.67° 48.63° Concrete 0 ft / 0 m 197 ft / 60 m
23 148 ft / 45 m 8,884 ft / 2,708 m 226.68° 228.64° Concrete 0 ft / 0 m 197 ft / 60 m

Approach Navaids

Runway Type Ident Frequency Range Bearing (true) Bearing (mag) Slope Elevation
05 Localiser IUY 110.90 MHz 18 nm / 33 km 46.54° 48.49° - 420 ft / 128 m (AMSL)
05 Glidescope IUY 110.90 MHz 10 nm / 19 km 46.67° 48.63° 3.00° 420 ft / 128 m (AMSL)
05 DME IUY 110.90 MHz 18 nm / 33 km - - - 410 ft / 125 m (AMSL)

Map

Weather


0- 5 10 15 20 25 30 35+ Temperature / ° C

Clouds and Precipitation
Forecast for 2017-12-14 12:00 UTC. Updated an hour ago

Ground ~20,000 ft ~40,000 ft Winds

METAR

ZGNN 141000Z 36002MPS 9000 -RA FEW009 SCT011 OVC026 12/11 Q1018 NOSIG

TAF

Not found

Frequencies

Ground 121.75 MHz NANNING GND
Tower 118.20 MHz NANNING TWR
Tower 130.00 MHz NANNING TWR
Warning: Do not use this data for real-world aviation or navigation. No guarantee of current accuracy is given.